createdAt,value
2022-10-01T00:00:04.613Z,88.98
2022-10-01T00:00:49.382Z,89.03
2022-10-01T00:01:38.558Z,88.97
2022-10-01T00:02:12.124Z,89.08
2022-10-01T00:02:45.537Z,89.06
2022-10-01T00:03:19.925Z,89.10
2022-10-01T00:03:53.623Z,89.15
2022-10-01T00:04:27.995Z,89.22
2022-10-01T00:05:01.685Z,89.19
2022-10-01T00:05:34.884Z,89.05
2022-10-01T00:06:12.355Z,89.15
2022-10-01T00:06:45.641Z,89.12
2022-10-01T00:07:18.930Z,89.01
2022-10-01T00:07:52.253Z,89.05
2022-10-01T00:08:25.670Z,88.88
2022-10-01T00:08:59.134Z,89.06
2022-10-01T00:09:32.705Z,89.12
2022-10-01T00:10:07.048Z,89.09
2022-10-01T00:10:44.473Z,89.10
2022-10-01T00:11:26.401Z,89.11
2022-10-01T00:12:00.211Z,89.09
2022-10-01T00:12:35.091Z,89.17
2022-10-01T00:13:08.686Z,89.14
2022-10-01T00:13:46.543Z,89.16
2022-10-01T00:14:20.290Z,89.30
2022-10-01T00:14:53.463Z,89.18
2022-10-01T00:15:26.872Z,89.27
2022-10-01T00:16:00.710Z,89.18
2022-10-01T00:16:34.003Z,89.10
2022-10-01T00:17:07.341Z,89.15
2022-10-01T00:17:41.227Z,89.06
2022-10-01T00:18:14.896Z,89.08
2022-10-01T00:18:49.613Z,89.04
2022-10-01T00:19:23.103Z,88.93
2022-10-01T00:19:56.325Z,88.97
2022-10-01T00:20:29.741Z,88.95
2022-10-01T00:21:07.518Z,88.98
2022-10-01T00:21:40.921Z,89.04
2022-10-01T00:22:14.070Z,89.05
2022-10-01T00:22:47.671Z,89.03
2022-10-01T00:23:20.873Z,89.07
2022-10-01T00:23:59.814Z,88.91
2022-10-01T00:24:33.209Z,89.03
2022-10-01T00:25:07.345Z,88.82
2022-10-01T00:25:41.653Z,88.93
2022-10-01T00:26:21.213Z,89.06
2022-10-01T00:26:54.388Z,88.89
2022-10-01T00:27:28.039Z,88.94
2022-10-01T00:28:01.526Z,88.73
2022-10-01T00:28:34.831Z,88.86
2022-10-01T00:29:13.146Z,88.88
2022-10-01T00:29:46.290Z,88.84
2022-10-01T00:30:19.574Z,88.80
2022-10-01T00:30:52.843Z,88.91
2022-10-01T00:31:27.428Z,88.86
2022-10-01T00:32:00.952Z,88.96
2022-10-01T00:32:34.155Z,88.87
2022-10-01T00:33:07.454Z,89.00
2022-10-01T00:33:40.926Z,88.89
2022-10-01T00:34:16.109Z,88.87
2022-10-01T00:34:49.462Z,88.90
2022-10-01T00:35:23.604Z,88.92
2022-10-01T00:35:57.397Z,89.01
2022-10-01T00:36:32.117Z,88.92
2022-10-01T00:37:05.343Z,88.93
2022-10-01T00:37:39.243Z,89.05
2022-10-01T00:38:14.346Z,89.04
2022-10-01T00:38:48.653Z,89.01
2022-10-01T00:39:22.505Z,88.96
2022-10-01T00:39:55.791Z,88.97
2022-10-01T00:40:29.212Z,88.83
2022-10-01T00:41:03.900Z,88.91
2022-10-01T00:41:37.569Z,88.86
2022-10-01T00:42:27.022Z,88.97
2022-10-01T00:43:00.266Z,88.88
2022-10-01T00:43:37.053Z,88.87
2022-10-01T00:44:32.469Z,88.85
2022-10-01T00:45:05.981Z,88.85
2022-10-01T00:45:39.848Z,88.94
2022-10-01T00:46:28.147Z,88.94
2022-10-01T00:47:11.716Z,88.94
2022-10-01T00:48:00.705Z,88.95
2022-10-01T00:48:44.742Z,89.02
2022-10-01T00:49:24.524Z,89.05
2022-10-01T00:50:16.750Z,89.00
2022-10-01T00:50:52.123Z,88.98
2022-10-01T00:51:35.858Z,89.05
2022-10-01T00:52:14.129Z,88.96
2022-10-01T00:52:52.449Z,89.05
2022-10-01T00:53:26.746Z,89.09
2022-10-01T00:54:10.756Z,89.02
2022-10-01T00:55:05.013Z,89.02
2022-10-01T00:55:43.169Z,89.04
2022-10-01T00:56:16.380Z,89.09
2022-10-01T00:56:55.751Z,89.04
2022-10-01T00:57:29.905Z,88.99
2022-10-01T00:58:05.277Z,89.02
2022-10-01T00:58:39.824Z,88.93
2022-10-01T00:59:16.450Z,88.96
2022-10-01T00:59:52.360Z,89.00
2022-10-01T01:00:25.772Z,89.14
2022-10-01T01:00:59.379Z,89.03
2022-10-01T01:01:36.926Z,89.10
2022-10-01T01:02:11.536Z,89.11
2022-10-01T01:02:45.017Z,89.15
2022-10-01T01:03:18.681Z,89.24
2022-10-01T01:03:52.180Z,89.17
2022-10-01T01:04:25.533Z,89.17
2022-10-01T01:04:59.513Z,89.22
2022-10-01T01:05:33.080Z,89.17
2022-10-01T01:06:08.431Z,89.22
2022-10-01T01:06:41.599Z,89.15
2022-10-01T01:07:16.252Z,89.19
2022-10-01T01:07:53.021Z,89.27
2022-10-01T01:08:26.284Z,89.15
2022-10-01T01:08:59.692Z,89.13
2022-10-01T01:09:44.971Z,89.13
2022-10-01T01:10:28.387Z,89.22
2022-10-01T01:11:35.633Z,89.07
2022-10-01T01:12:21.308Z,89.19
2022-10-01T01:12:54.424Z,89.18
2022-10-01T01:13:37.662Z,89.13
2022-10-01T01:14:20.424Z,89.26
2022-10-01T01:15:14.434Z,89.18
2022-10-01T01:16:12.953Z,89.17
2022-10-01T01:17:03.586Z,89.27
2022-10-01T01:18:03.873Z,89.38
2022-10-01T01:18:48.173Z,89.22
2022-10-01T01:19:41.566Z,89.30
2022-10-01T01:20:26.783Z,89.32
2022-10-01T01:21:09.259Z,89.30
2022-10-01T01:21:45.956Z,89.33
2022-10-01T01:22:24.742Z,89.21
2022-10-01T01:23:08.874Z,89.12
2022-10-01T01:24:04.198Z,89.15
2022-10-01T01:24:49.016Z,89.18
2022-10-01T01:25:38.738Z,89.41
2022-10-01T01:26:19.275Z,89.29
2022-10-01T01:27:10.851Z,89.34
2022-10-01T01:27:48.921Z,89.34
2022-10-01T01:28:31.886Z,89.36
2022-10-01T01:29:28.652Z,89.34
2022-10-01T01:30:11.948Z,89.44
2022-10-01T01:30:49.685Z,89.44
2022-10-01T01:31:30.698Z,89.41
2022-10-01T01:32:14.853Z,89.35
2022-10-01T01:32:59.527Z,89.52
2022-10-01T01:33:37.522Z,89.43
2022-10-01T01:34:14.446Z,89.35
2022-10-01T01:34:50.609Z,89.36
2022-10-01T01:35:42.500Z,89.44
2022-10-01T01:36:19.695Z,89.42
2022-10-01T01:36:59.902Z,89.53
2022-10-01T01:37:40.483Z,89.53
2022-10-01T01:38:19.133Z,89.61
2022-10-01T01:38:58.840Z,89.57
2022-10-01T01:39:35.176Z,89.55
2022-10-01T01:40:12.524Z,89.51
2022-10-01T01:40:51.871Z,89.47
2022-10-01T01:41:29.606Z,89.49
2022-10-01T01:42:09.775Z,89.44
2022-10-01T01:42:45.071Z,89.46
2022-10-01T01:43:24.573Z,89.53
2022-10-01T01:44:02.458Z,89.48
2022-10-01T01:44:40.103Z,89.65
2022-10-01T01:45:20.394Z,89.59
2022-10-01T01:45:56.855Z,89.63
2022-10-01T01:46:34.402Z,89.58
2022-10-01T01:47:10.836Z,89.60
2022-10-01T01:47:46.034Z,89.65
2022-10-01T01:48:19.279Z,89.51
2022-10-01T01:48:53.601Z,89.66
2022-10-01T01:49:27.075Z,89.59
2022-10-01T01:50:06.360Z,89.47
2022-10-01T01:51:08.679Z,89.70
2022-10-01T01:51:53.416Z,89.52
2022-10-01T01:52:26.762Z,89.67
2022-10-01T01:53:00.289Z,89.57
2022-10-01T01:53:34.808Z,89.59
2022-10-01T01:54:08.909Z,89.62
2022-10-01T01:54:50.002Z,89.59
2022-10-01T01:55:25.596Z,89.51
2022-10-01T01:56:00.596Z,89.57
2022-10-01T01:56:34.648Z,89.60
2022-10-01T01:57:09.140Z,89.46
2022-10-01T01:57:44.548Z,89.53
2022-10-01T01:58:19.127Z,89.54
2022-10-01T01:58:54.221Z,89.53
2022-10-01T01:59:28.101Z,89.41
2022-10-01T02:00:02.692Z,89.61
2022-10-01T02:00:36.895Z,89.54
2022-10-01T02:01:34.781Z,89.45
2022-10-01T02:02:13.725Z,89.57
2022-10-01T02:02:52.121Z,89.58
2022-10-01T02:03:29.539Z,89.57
2022-10-01T02:04:07.133Z,89.61
2022-10-01T02:04:57.825Z,89.64
2022-10-01T02:05:55.309Z,89.62
2022-10-01T02:06:48.808Z,89.58
2022-10-01T02:07:37.649Z,89.72
2022-10-01T02:08:41.617Z,89.68
2022-10-01T02:09:48.983Z,89.70
2022-10-01T02:10:34.542Z,89.60
2022-10-01T02:11:22.039Z,89.51
2022-10-01T02:12:09.671Z,89.60
2022-10-01T02:13:01.887Z,89.75
2022-10-01T02:13:50.475Z,89.73
2022-10-01T02:14:43.899Z,89.77
2022-10-01T02:15:35.569Z,89.59
2022-10-01T02:16:27.894Z,89.64
2022-10-01T02:17:11.452Z,89.65
2022-10-01T02:17:54.056Z,89.58
2022-10-01T02:18:36.247Z,89.76
2022-10-01T02:19:28.270Z,89.77
2022-10-01T02:20:14.365Z,89.79
2022-10-01T02:21:04.664Z,89.88
2022-10-01T02:21:42.475Z,89.87
2022-10-01T02:22:23.960Z,89.95
2022-10-01T02:23:10.359Z,90.18
2022-10-01T02:23:59.845Z,89.92
2022-10-01T02:24:41.734Z,90.03
2022-10-01T02:25:19.504Z,90.06
2022-10-01T02:25:58.705Z,90.10
2022-10-01T02:26:35.475Z,90.19
2022-10-01T02:27:30.715Z,90.08
2022-10-01T02:28:33.180Z,90.08
2022-10-01T02:29:10.210Z,90.03
2022-10-01T02:29:45.627Z,90.04
2022-10-01T02:30:19.460Z,89.99
2022-10-01T02:30:56.230Z,90.07
2022-10-01T02:31:32.689Z,90.18
2022-10-01T02:32:07.279Z,90.24
2022-10-01T02:32:44.877Z,90.31
2022-10-01T02:33:24.753Z,90.24
2022-10-01T02:34:00.345Z,90.14
2022-10-01T02:34:34.290Z,90.26
2022-10-01T02:35:11.147Z,90.37
2022-10-01T02:35:46.844Z,90.32
2022-10-01T02:36:23.211Z,90.52
2022-10-01T02:36:59.706Z,90.35
2022-10-01T02:37:34.711Z,90.36
2022-10-01T02:38:11.115Z,90.52
2022-10-01T02:38:46.742Z,90.40
2022-10-01T02:39:23.307Z,90.40
2022-10-01T02:39:58.921Z,90.41
2022-10-01T02:40:36.733Z,90.44
2022-10-01T02:41:12.952Z,90.41
2022-10-01T02:41:50.583Z,90.45
2022-10-01T02:42:27.837Z,90.45
2022-10-01T02:43:12.427Z,90.55
2022-10-01T02:43:57.483Z,90.49
2022-10-01T02:44:40.478Z,90.37
2022-10-01T02:45:18.484Z,90.49
2022-10-01T02:45:58.938Z,90.49
2022-10-01T02:47:10.963Z,90.55
2022-10-01T02:47:48.112Z,90.61
2022-10-01T02:48:21.743Z,90.51
2022-10-01T02:48:56.186Z,90.49
2022-10-01T02:49:31.035Z,90.55
2022-10-01T02:50:06.752Z,90.61
2022-10-01T02:50:53.267Z,90.56
2022-10-01T02:51:53.585Z,90.43
2022-10-01T02:52:29.702Z,90.54
2022-10-01T02:53:10.272Z,90.60
2022-10-01T02:53:53.379Z,90.63
2022-10-01T02:54:52.459Z,90.60
2022-10-01T02:55:31.127Z,90.63
2022-10-01T02:56:06.101Z,90.60
2022-10-01T02:56:59.658Z,90.65
2022-10-01T02:57:33.323Z,90.66
2022-10-01T02:58:08.049Z,90.77
2022-10-01T02:58:42.253Z,90.76
2022-10-01T02:59:15.382Z,90.71
2022-10-01T02:59:49.216Z,90.77
2022-10-01T03:00:23.096Z,90.83
2022-10-01T03:00:56.393Z,90.85
2022-10-01T03:01:30.137Z,90.83
2022-10-01T03:02:04.148Z,90.82
2022-10-01T03:02:37.795Z,90.81
2022-10-01T03:03:11.197Z,90.79
2022-10-01T03:03:44.451Z,90.90
2022-10-01T03:04:19.462Z,90.83
2022-10-01T03:04:52.612Z,90.80
2022-10-01T03:05:26.056Z,90.76
2022-10-01T03:05:59.303Z,90.80
2022-10-01T03:06:35.349Z,90.92
2022-10-01T03:07:08.744Z,90.87
2022-10-01T03:07:42.270Z,90.88
2022-10-01T03:08:15.520Z,90.86
2022-10-01T03:08:48.863Z,90.81
2022-10-01T03:09:22.082Z,90.78
2022-10-01T03:09:55.316Z,90.81
2022-10-01T03:10:28.846Z,90.73
2022-10-01T03:11:02.389Z,90.86
2022-10-01T03:11:36.048Z,90.80
2022-10-01T03:12:10.865Z,90.88
2022-10-01T03:12:48.248Z,90.84
2022-10-01T03:13:23.743Z,91.00
2022-10-01T03:13:57.425Z,90.80
2022-10-01T03:14:32.567Z,90.91
2022-10-01T03:15:07.063Z,90.96
2022-10-01T03:15:40.220Z,91.06
2022-10-01T03:16:13.672Z,90.93
2022-10-01T03:16:46.789Z,91.07
2022-10-01T03:17:20.629Z,91.13
2022-10-01T03:17:54.208Z,91.08
2022-10-01T03:18:27.440Z,91.04
2022-10-01T03:19:00.588Z,91.01
2022-10-01T03:19:33.955Z,91.00
2022-10-01T03:20:07.897Z,91.13
2022-10-01T03:20:41.003Z,90.92
2022-10-01T03:21:14.356Z,90.84
2022-10-01T03:21:48.126Z,90.87
2022-10-01T03:22:25.536Z,91.06
2022-10-01T03:22:58.781Z,90.91
2022-10-01T03:23:32.083Z,91.04
2022-10-01T03:24:05.337Z,91.00
2022-10-01T03:24:38.817Z,90.98
2022-10-01T03:25:11.965Z,91.07
2022-10-01T03:25:45.135Z,90.98
2022-10-01T03:26:18.348Z,91.11
2022-10-01T03:26:51.670Z,91.10
2022-10-01T03:27:24.976Z,91.09
2022-10-01T03:27:59.371Z,91.18
2022-10-01T03:28:32.540Z,91.14
2022-10-01T03:29:06.671Z,91.09
2022-10-01T03:29:39.757Z,91.08
2022-10-01T03:30:13.685Z,91.06
2022-10-01T03:30:46.934Z,91.01
2022-10-01T03:31:20.232Z,91.10
2022-10-01T03:31:54.300Z,91.14
2022-10-01T03:32:27.624Z,91.05
2022-10-01T03:33:01.086Z,91.13
2022-10-01T03:33:34.382Z,91.10
2022-10-01T03:34:07.534Z,91.12
2022-10-01T03:34:41.312Z,91.14
2022-10-01T03:35:14.571Z,91.02
2022-10-01T03:35:47.960Z,91.11
2022-10-01T03:36:21.208Z,91.14
2022-10-01T03:36:54.430Z,91.09
2022-10-01T03:37:27.599Z,91.01
2022-10-01T03:38:02.990Z,91.16
2022-10-01T03:38:36.048Z,91.04
2022-10-01T03:39:09.476Z,91.15
2022-10-01T03:39:43.035Z,91.17
2022-10-01T03:40:16.218Z,91.12
2022-10-01T03:40:49.891Z,91.29
2022-10-01T03:41:23.122Z,91.18
2022-10-01T03:41:56.596Z,91.10
2022-10-01T03:42:29.877Z,91.16
2022-10-01T03:43:02.982Z,91.19
2022-10-01T03:43:36.266Z,91.16
2022-10-01T03:44:09.518Z,91.06
2022-10-01T03:44:43.953Z,91.19
2022-10-01T03:45:17.174Z,91.17
2022-10-01T03:45:50.142Z,91.16
2022-10-01T03:46:23.480Z,91.13
2022-10-01T03:46:56.616Z,91.09
2022-10-01T03:47:29.994Z,91.09
2022-10-01T03:48:03.195Z,91.05
2022-10-01T03:48:36.207Z,91.16
2022-10-01T03:49:09.618Z,91.05
2022-10-01T03:49:42.660Z,91.09
2022-10-01T03:50:15.889Z,91.17
2022-10-01T03:51:00.002Z,91.13
2022-10-01T03:51:33.918Z,91.01
2022-10-01T03:52:07.282Z,90.95
2022-10-01T03:52:41.954Z,91.08
2022-10-01T03:53:15.282Z,91.33
2022-10-01T03:53:48.622Z,91.07
2022-10-01T03:54:22.024Z,91.26
2022-10-01T03:54:55.130Z,91.27
2022-10-01T03:55:28.651Z,91.19
2022-10-01T03:56:02.057Z,91.35
2022-10-01T03:56:36.239Z,91.17
2022-10-01T03:57:09.693Z,91.18
2022-10-01T03:57:42.778Z,91.36
2022-10-01T03:58:16.946Z,91.28
2022-10-01T03:58:50.523Z,91.22
2022-10-01T03:59:23.766Z,91.29
2022-10-01T03:59:56.957Z,91.09
2022-10-01T04:00:30.175Z,91.21
2022-10-01T04:01:03.486Z,91.17
2022-10-01T04:01:37.579Z,91.13
2022-10-01T04:02:11.396Z,91.13
2022-10-01T04:02:45.332Z,91.23
2022-10-01T04:03:19.107Z,91.24
2022-10-01T04:03:53.148Z,91.33
2022-10-01T04:04:26.231Z,91.26
2022-10-01T04:04:59.467Z,91.34
2022-10-01T04:05:32.810Z,91.35
2022-10-01T04:06:06.290Z,91.43
2022-10-01T04:06:39.517Z,91.45
2022-10-01T04:07:12.753Z,91.47
2022-10-01T04:07:46.559Z,91.50
2022-10-01T04:08:24.050Z,91.41
2022-10-01T04:08:58.134Z,91.49
2022-10-01T04:09:31.451Z,91.47
2022-10-01T04:10:04.937Z,91.56
2022-10-01T04:10:38.833Z,91.55
2022-10-01T04:11:12.174Z,91.60
2022-10-01T04:11:45.562Z,91.68
2022-10-01T04:12:19.186Z,91.64
2022-10-01T04:12:54.150Z,91.63
2022-10-01T04:13:28.282Z,91.59
2022-10-01T04:14:01.677Z,91.68
2022-10-01T04:14:34.824Z,91.54
2022-10-01T04:15:08.553Z,91.51
2022-10-01T04:15:42.029Z,91.65
2022-10-01T04:16:16.442Z,91.65
2022-10-01T04:16:52.784Z,91.76
2022-10-01T04:17:25.907Z,91.66
2022-10-01T04:18:00.066Z,91.69
2022-10-01T04:18:34.479Z,91.61
2022-10-01T04:19:07.653Z,91.64
2022-10-01T04:19:40.878Z,91.59
2022-10-01T04:20:14.452Z,91.63
2022-10-01T04:20:48.516Z,91.61
2022-10-01T04:21:21.722Z,91.74
2022-10-01T04:21:54.876Z,91.65
2022-10-01T04:22:28.068Z,91.79
2022-10-01T04:23:02.126Z,91.76
2022-10-01T04:23:35.530Z,91.66
2022-10-01T04:24:08.684Z,91.76
2022-10-01T04:24:41.924Z,91.68
2022-10-01T04:25:15.367Z,91.81
2022-10-01T04:25:49.247Z,91.71
2022-10-01T04:26:22.580Z,91.76
2022-10-01T04:26:55.863Z,91.71
2022-10-01T04:27:29.341Z,91.80
2022-10-01T04:28:06.387Z,91.71
2022-10-01T04:28:39.830Z,91.66
2022-10-01T04:29:12.981Z,91.79
2022-10-01T04:29:46.177Z,91.79
2022-10-01T04:30:19.405Z,91.86
2022-10-01T04:31:12.534Z,91.80
2022-10-01T04:31:46.012Z,91.88
2022-10-01T04:32:22.556Z,91.81
2022-10-01T04:32:55.779Z,91.81
2022-10-01T04:33:28.821Z,91.81
2022-10-01T04:34:02.164Z,91.91
2022-10-01T04:34:53.602Z,91.85
2022-10-01T04:35:27.247Z,91.86
2022-10-01T04:36:00.482Z,91.80
2022-10-01T04:36:33.851Z,91.90
2022-10-01T04:37:07.117Z,91.84
2022-10-01T04:37:40.369Z,91.85
2022-10-01T04:38:16.796Z,91.85
2022-10-01T04:38:59.279Z,91.87
2022-10-01T04:39:35.249Z,91.94
2022-10-01T04:40:10.959Z,91.90
2022-10-01T04:40:44.131Z,91.89
2022-10-01T04:41:17.368Z,91.76
2022-10-01T04:41:50.738Z,91.86
2022-10-01T04:42:23.909Z,91.85
2022-10-01T04:42:57.672Z,91.76
2022-10-01T04:43:31.188Z,91.83
2022-10-01T04:44:04.799Z,91.77
2022-10-01T04:44:38.163Z,91.77
2022-10-01T04:45:12.143Z,91.87
2022-10-01T04:45:45.400Z,91.90
2022-10-01T04:46:18.803Z,91.81
2022-10-01T04:46:51.995Z,91.91
2022-10-01T04:47:25.287Z,91.78
2022-10-01T04:47:58.874Z,91.70
2022-10-01T04:48:31.898Z,91.88
2022-10-01T04:49:05.362Z,91.81
2022-10-01T04:49:39.485Z,91.86
2022-10-01T04:50:12.966Z,91.75
2022-10-01T04:50:46.101Z,91.66
2022-10-01T04:51:19.306Z,91.82
2022-10-01T04:51:52.513Z,91.81
2022-10-01T04:52:25.831Z,91.75
2022-10-01T04:52:59.035Z,91.77
2022-10-01T04:53:32.685Z,91.79
2022-10-01T04:54:05.867Z,91.74
2022-10-01T04:54:39.046Z,91.71
2022-10-01T04:55:12.369Z,91.73
2022-10-01T04:55:46.602Z,91.67
2022-10-01T04:56:19.798Z,91.81
2022-10-01T04:56:53.225Z,91.82
2022-10-01T04:57:26.424Z,91.78
2022-10-01T04:57:59.660Z,91.73
2022-10-01T04:58:33.396Z,91.89
2022-10-01T04:59:06.571Z,91.65
2022-10-01T04:59:39.588Z,91.64
2022-10-01T05:00:19.339Z,91.76
2022-10-01T05:00:52.526Z,91.60
2022-10-01T05:01:25.708Z,91.68
2022-10-01T05:01:59.079Z,91.62
2022-10-01T05:02:34.677Z,91.62
2022-10-01T05:03:08.085Z,91.72
2022-10-01T05:03:41.530Z,91.70
2022-10-01T05:04:14.992Z,91.70
2022-10-01T05:04:48.389Z,91.64
2022-10-01T05:05:24.789Z,91.72
2022-10-01T05:05:58.055Z,91.79
2022-10-01T05:06:31.514Z,91.73
2022-10-01T05:07:04.810Z,91.71
2022-10-01T05:07:40.195Z,91.75
2022-10-01T05:08:13.441Z,91.54
2022-10-01T05:08:47.990Z,91.72
2022-10-01T05:09:21.249Z,91.62
2022-10-01T05:09:54.324Z,91.71
2022-10-01T05:10:27.852Z,91.66
2022-10-01T05:11:00.976Z,91.74
2022-10-01T05:11:35.141Z,91.77
2022-10-01T05:12:08.634Z,91.53
2022-10-01T05:12:42.307Z,91.68
2022-10-01T05:13:15.465Z,91.59
2022-10-01T05:13:48.756Z,91.65
2022-10-01T05:14:22.291Z,91.61
2022-10-01T05:14:56.971Z,91.56
2022-10-01T05:15:30.629Z,91.62
2022-10-01T05:16:03.974Z,91.60
2022-10-01T05:16:37.975Z,91.52
2022-10-01T05:17:11.280Z,91.48
2022-10-01T05:17:45.008Z,91.52
2022-10-01T05:18:18.156Z,91.58
2022-10-01T05:18:51.447Z,91.56
2022-10-01T05:19:27.950Z,91.66
2022-10-01T05:20:02.414Z,91.50
2022-10-01T05:20:35.587Z,91.39
2022-10-01T05:21:10.360Z,91.57
2022-10-01T05:21:44.187Z,91.51
2022-10-01T05:22:17.334Z,91.53
2022-10-01T05:22:51.071Z,91.45
2022-10-01T05:23:24.279Z,91.55
2022-10-01T05:23:57.477Z,91.55
2022-10-01T05:24:30.700Z,91.54
2022-10-01T05:25:04.407Z,91.52
2022-10-01T05:25:37.796Z,91.52
2022-10-01T05:26:11.141Z,91.47
2022-10-01T05:26:44.437Z,91.56
2022-10-01T05:27:17.945Z,91.47
2022-10-01T05:27:51.381Z,91.40
2022-10-01T05:28:24.784Z,91.52
2022-10-01T05:29:00.901Z,91.42
2022-10-01T05:29:33.952Z,91.44
2022-10-01T05:30:09.328Z,91.43
2022-10-01T05:30:43.422Z,91.38
2022-10-01T05:31:16.768Z,91.38
2022-10-01T05:31:50.555Z,91.45
2022-10-01T05:32:23.938Z,91.41
2022-10-01T05:32:59.231Z,91.49
2022-10-01T05:33:34.427Z,91.36
2022-10-01T05:34:07.604Z,91.41
2022-10-01T05:34:40.874Z,91.45
2022-10-01T05:35:14.156Z,91.53
2022-10-01T05:35:47.729Z,91.31
2022-10-01T05:36:20.926Z,91.36
2022-10-01T05:36:55.296Z,91.46
2022-10-01T05:37:28.499Z,91.35
2022-10-01T05:38:03.222Z,91.41
2022-10-01T05:38:37.631Z,91.34
2022-10-01T05:39:10.964Z,91.33
2022-10-01T05:39:44.348Z,91.27
2022-10-01T05:40:18.398Z,91.36
2022-10-01T05:40:51.853Z,91.33
2022-10-01T05:41:24.970Z,91.43
2022-10-01T05:42:03.933Z,91.30
2022-10-01T05:42:39.803Z,91.29
2022-10-01T05:43:13.934Z,91.36
2022-10-01T05:43:50.252Z,91.33
2022-10-01T05:44:24.394Z,91.37
2022-10-01T05:44:57.804Z,91.35
2022-10-01T05:45:32.583Z,91.44
2022-10-01T05:46:06.430Z,91.38
2022-10-01T05:46:40.058Z,91.36
2022-10-01T05:47:14.808Z,91.45
2022-10-01T05:47:49.564Z,91.27
2022-10-01T05:48:22.911Z,91.30
2022-10-01T05:48:56.425Z,91.42
2022-10-01T05:49:29.957Z,91.42
2022-10-01T05:50:03.733Z,91.30
2022-10-01T05:50:40.548Z,91.42
2022-10-01T05:51:16.794Z,91.32
2022-10-01T05:51:50.333Z,91.35
2022-10-01T05:52:23.794Z,91.27
2022-10-01T05:52:57.764Z,91.24
2022-10-01T05:53:31.387Z,91.34
2022-10-01T05:54:04.770Z,91.40
2022-10-01T05:54:38.603Z,91.31
2022-10-01T05:55:11.789Z,91.35
2022-10-01T05:55:45.279Z,91.27
2022-10-01T05:56:19.200Z,91.25
2022-10-01T05:56:53.843Z,91.23
2022-10-01T05:57:27.169Z,91.23
2022-10-01T05:58:10.878Z,91.24
2022-10-01T05:58:44.337Z,91.17
2022-10-01T05:59:17.906Z,91.19
2022-10-01T05:59:51.249Z,91.21
2022-10-01T06:00:28.450Z,91.26
2022-10-01T06:01:02.135Z,91.17
2022-10-01T06:01:35.999Z,91.12
2022-10-01T06:02:10.430Z,91.22
2022-10-01T06:02:44.351Z,91.06
2022-10-01T06:03:18.028Z,91.08
2022-10-01T06:03:54.991Z,91.12
2022-10-01T06:04:28.431Z,90.98
2022-10-01T06:05:02.798Z,91.09
2022-10-01T06:05:37.025Z,90.89
2022-10-01T06:06:11.125Z,91.00
2022-10-01T06:06:45.113Z,91.09
2022-10-01T06:07:18.640Z,91.00
2022-10-01T06:07:52.699Z,90.98
2022-10-01T06:08:29.080Z,90.97
2022-10-01T06:09:02.639Z,90.89
2022-10-01T06:09:36.089Z,90.99
2022-10-01T06:10:09.668Z,90.97
2022-10-01T06:10:43.096Z,90.91
2022-10-01T06:11:17.467Z,90.99
2022-10-01T06:11:50.874Z,90.96
2022-10-01T06:12:24.477Z,90.84
2022-10-01T06:13:02.171Z,90.84
2022-10-01T06:13:36.524Z,90.82
2022-10-01T06:14:09.841Z,90.81
2022-10-01T06:14:43.142Z,90.70
2022-10-01T06:15:18.096Z,90.71
2022-10-01T06:15:53.201Z,90.79
2022-10-01T06:16:26.302Z,90.69
2022-10-01T06:16:59.613Z,90.82
2022-10-01T06:17:33.531Z,90.79
2022-10-01T06:18:09.012Z,90.78
2022-10-01T06:18:42.820Z,90.76
2022-10-01T06:19:17.750Z,90.84
2022-10-01T06:19:51.832Z,90.75
2022-10-01T06:20:25.059Z,90.75
2022-10-01T06:21:00.473Z,90.73
2022-10-01T06:21:34.167Z,90.71
2022-10-01T06:22:08.044Z,90.74
2022-10-01T06:22:43.426Z,90.63
2022-10-01T06:23:16.610Z,90.75
2022-10-01T06:23:50.746Z,90.73
2022-10-01T06:24:23.975Z,90.81
2022-10-01T06:24:57.346Z,90.71
2022-10-01T06:25:31.303Z,90.76
2022-10-01T06:26:06.324Z,90.77
2022-10-01T06:26:39.664Z,90.77
2022-10-01T06:27:13.062Z,90.72
2022-10-01T06:27:53.760Z,90.69
2022-10-01T06:28:28.138Z,90.68
2022-10-01T06:29:03.173Z,90.62
2022-10-01T06:29:36.453Z,90.61
2022-10-01T06:30:10.655Z,90.58
2022-10-01T06:30:44.002Z,90.60
2022-10-01T06:31:18.485Z,90.62
2022-10-01T06:31:52.097Z,90.64
2022-10-01T06:32:25.450Z,90.63
2022-10-01T06:33:03.162Z,90.59
2022-10-01T06:33:37.231Z,90.57
2022-10-01T06:34:10.838Z,90.61
2022-10-01T06:34:43.891Z,90.60
2022-10-01T06:35:18.146Z,90.63
2022-10-01T06:35:52.377Z,90.65
2022-10-01T06:36:25.575Z,90.62
2022-10-01T06:36:58.700Z,90.61
2022-10-01T06:37:32.414Z,90.68
2022-10-01T06:38:06.597Z,90.59
2022-10-01T06:38:39.851Z,90.59
2022-10-01T06:39:12.959Z,90.49
2022-10-01T06:39:46.367Z,90.51
2022-10-01T06:40:19.739Z,90.52
2022-10-01T06:41:01.136Z,90.46
2022-10-01T06:41:34.930Z,90.43
2022-10-01T06:42:08.495Z,90.39
2022-10-01T06:42:48.278Z,90.37
2022-10-01T06:43:22.406Z,90.33
2022-10-01T06:43:55.711Z,90.32
2022-10-01T06:44:29.360Z,90.40
2022-10-01T06:45:02.733Z,90.40
2022-10-01T06:45:43.923Z,90.40
2022-10-01T06:46:17.423Z,90.34
2022-10-01T06:46:50.662Z,90.32
2022-10-01T06:47:24.755Z,90.34
2022-10-01T06:48:03.012Z,90.24
2022-10-01T06:48:36.908Z,90.18
2022-10-01T06:49:10.109Z,90.19
2022-10-01T06:49:47.314Z,90.27
2022-10-01T06:50:21.078Z,90.21
2022-10-01T06:50:56.313Z,90.20
2022-10-01T06:51:48.505Z,90.10
2022-10-01T06:52:40.898Z,90.19
2022-10-01T06:53:18.119Z,90.13
2022-10-01T06:53:52.297Z,90.11
2022-10-01T06:54:28.098Z,90.08
2022-10-01T06:55:02.570Z,90.08
2022-10-01T06:55:37.574Z,90.05
2022-10-01T06:56:10.878Z,90.03
2022-10-01T06:56:44.776Z,90.14
2022-10-01T06:57:18.172Z,90.07
2022-10-01T06:57:56.923Z,90.05
2022-10-01T06:58:30.532Z,89.90
2022-10-01T06:59:04.570Z,89.91
2022-10-01T06:59:37.993Z,89.86
2022-10-01T07:00:12.858Z,89.90
2022-10-01T07:00:47.923Z,89.91
2022-10-01T07:01:22.307Z,89.80
2022-10-01T07:01:56.346Z,89.78
2022-10-01T07:02:30.392Z,89.85
2022-10-01T07:03:11.398Z,89.82
2022-10-01T07:03:44.613Z,89.85
2022-10-01T07:04:17.857Z,89.90
2022-10-01T07:04:51.162Z,89.84
2022-10-01T07:05:25.724Z,89.81
2022-10-01T07:06:04.339Z,89.78
2022-10-01T07:06:37.944Z,89.85
2022-10-01T07:07:11.268Z,89.87
2022-10-01T07:07:48.793Z,89.75
2022-10-01T07:08:22.819Z,89.85
2022-10-01T07:08:56.837Z,89.82
2022-10-01T07:09:30.440Z,89.76
2022-10-01T07:10:06.715Z,89.73
2022-10-01T07:10:41.080Z,89.86
2022-10-01T07:11:14.209Z,89.77
2022-10-01T07:11:47.624Z,89.75
2022-10-01T07:12:20.857Z,89.73
2022-10-01T07:12:54.112Z,89.69
2022-10-01T07:13:27.237Z,89.68
2022-10-01T07:14:01.709Z,89.67
2022-10-01T07:14:34.979Z,89.63
2022-10-01T07:15:09.382Z,89.56
2022-10-01T07:15:43.094Z,89.59
2022-10-01T07:16:16.372Z,89.55
2022-10-01T07:16:49.577Z,89.47
2022-10-01T07:17:23.148Z,89.49
2022-10-01T07:17:56.455Z,89.38
2022-10-01T07:18:29.606Z,89.28
2022-10-01T07:19:03.002Z,89.25
2022-10-01T07:19:36.362Z,89.25
2022-10-01T07:20:09.951Z,89.14
2022-10-01T07:20:43.488Z,89.19
2022-10-01T07:21:16.797Z,89.29
2022-10-01T07:21:50.108Z,89.29
2022-10-01T07:22:24.569Z,89.25
2022-10-01T07:22:59.470Z,89.36
2022-10-01T07:23:32.667Z,89.46
2022-10-01T07:24:06.249Z,89.51
2022-10-01T07:24:39.856Z,89.58
2022-10-01T07:25:14.010Z,89.54
2022-10-01T07:25:47.426Z,89.55
2022-10-01T07:26:20.572Z,89.59
2022-10-01T07:26:56.146Z,89.51
2022-10-01T07:27:29.601Z,89.47
2022-10-01T07:28:05.099Z,89.43
2022-10-01T07:28:39.201Z,89.38
2022-10-01T07:29:12.341Z,89.33
2022-10-01T07:29:45.817Z,89.26
2022-10-01T07:30:19.106Z,89.14
2022-10-01T07:31:07.062Z,89.10
2022-10-01T07:31:40.357Z,88.99
2022-10-01T07:32:13.578Z,88.99
2022-10-01T07:32:46.880Z,88.98
2022-10-01T07:33:21.137Z,88.89
2022-10-01T07:33:58.150Z,88.85
2022-10-01T07:34:31.500Z,88.67
2022-10-01T07:35:06.195Z,88.74
2022-10-01T07:35:39.507Z,88.72
2022-10-01T07:36:13.791Z,88.71
2022-10-01T07:36:49.438Z,88.70
2022-10-01T07:37:23.314Z,88.64
2022-10-01T07:37:56.715Z,88.60
2022-10-01T07:38:30.598Z,88.56
2022-10-01T07:39:04.091Z,88.57
2022-10-01T07:39:37.619Z,88.58
2022-10-01T07:40:11.077Z,88.61
2022-10-01T07:40:44.303Z,88.61
2022-10-01T07:41:18.366Z,88.75
2022-10-01T07:41:52.170Z,88.83
2022-10-01T07:42:26.884Z,88.81
2022-10-01T07:43:00.094Z,88.82
2022-10-01T07:43:35.056Z,88.97
2022-10-01T07:44:08.360Z,88.94